Flight Track Log - Related Links

Times and Time Zones

All times are in EDT time to prevent confusion due to time zone crossing. See the CAV521 flight status page for this flight to view local times or setup timezone preferences in your user account.

Time Position Orientation Groundspeed Altitude Reporting Facility
EDT Latitude Longitude Course Direction KTS MPH feet Rate Location/Type
Fri 09:08:40 PM 49.9000 -97.2500 356° North 130 150 1,600  Level Winnipeg Center
Fri 09:09:40 PM 49.9333 -97.3000 316° Northwest 160 184 2,600 1,150 Climbing Winnipeg Center
Fri 09:10:40 PM 49.9667 -97.3333 327° Northwest 150 173 3,900 1,200 Climbing Winnipeg Center
Fri 09:11:40 PM 50.0000 -97.3333 360° North 150 173 5,000 1,150 Climbing Winnipeg Center
Fri 09:12:40 PM 50.0500 -97.3500 348° North 160 184 6,200 1,150 Climbing Winnipeg Center
Fri 09:13:40 PM 50.1000 -97.3500 360° North 150 173 7,300 1,150 Climbing Winnipeg Center
Fri 09:14:00 PM 50.3347 -97.2718 356° North  Level FlightAware Approximate
Fri 09:14:40 PM 50.1333 -97.3500 360° North 150 173 8,500  Level Winnipeg Center
Fri 09:15:40 PM 50.1833 -97.3500 360° North 160 184 9,500 1,050 Climbing Winnipeg Center
Fri 09:16:40 PM 50.2333 -97.3500 360° North 160 184 10,600 1,050 Climbing Winnipeg Center
Fri 09:17:40 PM 50.2667 -97.3500 360° North 160 184 11,600 1,000 Climbing Winnipeg Center
Fri 09:18:40 PM 50.3167 -97.3667 348° North 160 184 12,600 1,000 Climbing Winnipeg Center
Fri 09:19:40 PM 50.3667 -97.3667 360° North 160 184 13,600 950 Climbing Winnipeg Center
Fri 09:20:40 PM 50.4000 -97.3667 360° North 170 196 14,500 950 Climbing Winnipeg Center
Fri 09:21:40 PM 50.4500 -97.3833 348° North 160 184 15,500 900 Climbing Winnipeg Center
Fri 09:22:40 PM 50.5000 -97.3833 360° North 170 196 16,300 850 Climbing Winnipeg Center
Fri 09:23:40 PM 50.5500 -97.3833 360° North 170 196 17,200 800 Climbing Winnipeg Center
Fri 09:24:40 PM 50.5833 -97.3833 360° North 170 196 17,900 400 Climbing Winnipeg Center
Fri 09:25:40 PM 50.6333 -97.3833 360° North 180 207 18,000 50 Climbing Winnipeg Center
Fri 09:26:40 PM 50.7000 -97.3833 360° North 210 242 18,000  Level Winnipeg Center
Fri 09:27:40 PM 50.7667 -97.4167 342° North 220 253 18,000  Level Winnipeg Center
Fri 09:28:40 PM 50.8333 -97.4167 360° North 220 253 18,000  Level Winnipeg Center
Fri 09:29:40 PM 50.8833 -97.4167 360° North 220 253 18,000  Level Winnipeg Center
Fri 09:30:40 PM 50.9500 -97.4167 360° North 230 265 18,000 150 Level Winnipeg Center
Fri 09:31:40 PM 51.0167 -97.4167 360° North 230 265 18,300 500 Climbing Winnipeg Center
Fri 09:32:40 PM 51.0667 -97.4167 360° North 220 253 19,000 600 Climbing Winnipeg Center
Fri 09:33:40 PM 51.1333 -97.4167 360° North 200 230 19,500 450 Climbing Winnipeg Center
Fri 09:34:40 PM 51.1833 -97.4500 337° Northwest 200 230 19,900 250 Climbing Winnipeg Center
Fri 09:35:40 PM 51.2500 -97.4500 360° North 210 242 20,000 50 Climbing Winnipeg Center
Fri 09:36:40 PM 51.3000 -97.4500 360° North 220 253 20,000  Level Winnipeg Center
Fri 09:37:40 PM 51.3667 -97.4500 360° North 230 265 20,000  Level Winnipeg Center
Fri 09:38:40 PM 51.4333 -97.4500 360° North 240 276 20,000  Level Winnipeg Center
Fri 09:39:40 PM 51.5000 -97.4833 343° North 240 276 20,000  Level Winnipeg Center
Fri 09:40:40 PM 51.5667 -97.4833 360° North 240 276 20,000  Level Winnipeg Center
Fri 09:41:40 PM 51.6333 -97.4833 360° North 250 288 20,000  Level Winnipeg Center
Fri 09:42:40 PM 51.7000 -97.4833 360° North 240 276 20,000  Level Winnipeg Center
Fri 09:43:40 PM 51.7667 -97.4833 360° North 240 276 20,000  Level Winnipeg Center
Fri 09:44:40 PM 51.8333 -97.4833 360° North 250 288 20,000  Level Winnipeg Center
Fri 09:45:40 PM 51.9000 -97.5000 351° North 250 288 20,000  Level Winnipeg Center
Fri 09:46:40 PM 51.9667 -97.5000 360° North 240 276 20,000  Level Winnipeg Center
Fri 09:47:40 PM 52.0500 -97.5167 353° North 250 288 20,000  Level Winnipeg Center
Fri 09:48:40 PM 52.1167 -97.5167 360° North 250 288 20,000  Level Winnipeg Center
Fri 09:49:40 PM 52.1833 -97.5167 360° North 250 288 20,000  Level Winnipeg Center
Fri 09:50:40 PM 52.2500 -97.5333 351° North 250 288 20,000  Level Winnipeg Center
Fri 09:51:40 PM 52.3167 -97.5333 360° North 240 276 20,000  Level Winnipeg Center
Fri 09:52:40 PM 52.3833 -97.5333 360° North 240 276 20,000  Level Winnipeg Center
Fri 09:53:40 PM 52.4500 -97.5333 360° North 240 276 20,000  Level Winnipeg Center
Fri 09:54:40 PM 52.5167 -97.5500 351° North 240 276 20,000  Level Winnipeg Center
Fri 09:55:40 PM 52.5833 -97.5500 360° North 240 276 20,000  Level Winnipeg Center
Fri 09:56:40 PM 52.6500 -97.5667 351° North 240 276 20,000  Level Winnipeg Center
Fri 09:57:40 PM 52.7167 -97.5667 360° North 240 276 20,000  Level Winnipeg Center
Fri 09:58:40 PM 52.7833 -97.5667 360° North 240 276 20,000  Level Winnipeg Center
Fri 09:59:40 PM 52.8500 -97.5667 360° North 240 276 20,000  Level Winnipeg Center
Fri 10:00:40 PM 52.9167 -97.5667 360° North 240 276 20,000  Level Winnipeg Center
Fri 10:02:40 PM 53.0500 -97.6000 351° North 240 276 20,000  Level Winnipeg Center
Fri 10:03:40 PM 53.1167 -97.6000 360° North 240 276 20,000  Level Winnipeg Center
Fri 10:04:40 PM 53.1833 -97.6000 360° North 240 276 20,000  Level Winnipeg Center
Fri 10:05:40 PM 53.2500 -97.6000 360° North 240 276 20,000  Level Winnipeg Center
Fri 10:06:40 PM 53.3167 -97.6167 352° North 240 276 20,000  Level Winnipeg Center
Fri 10:07:40 PM 53.4000 -97.6167 360° North 240 276 20,000  Level Winnipeg Center
Fri 10:08:40 PM 53.4667 -97.6333 352° North 240 276 20,000  Level Winnipeg Center
Fri 10:09:40 PM 53.5333 -97.6333 360° North 240 276 20,000  Level Winnipeg Center
Fri 10:10:40 PM 53.6000 -97.6333 360° North 240 276 20,000  Level Winnipeg Center
Fri 10:11:40 PM 53.6667 -97.6333 360° North 240 276 20,000  Level Winnipeg Center
Fri 10:12:40 PM 53.7333 -97.6500 352° North 240 276 20,000  Level Winnipeg Center
Fri 10:13:40 PM 53.8000 -97.6667 352° North 240 276 20,000  Level Winnipeg Center
Fri 10:14:40 PM 53.8667 -97.6667 360° North 230 265 20,000  Level Winnipeg Center
Fri 10:15:40 PM 53.9333 -97.6667 360° North 230 265 20,000  Level Winnipeg Center
Fri 10:16:40 PM 54.0000 -97.6833 352° North 230 265 20,000  Level Winnipeg Center
Fri 10:17:40 PM 54.0500 -97.6833 360° North 230 265 20,000  Level Winnipeg Center
Fri 10:18:40 PM 54.1167 -97.6833 360° North 230 265 20,000  Level Winnipeg Center
Fri 10:19:40 PM 54.1833 -97.7000 352° North 230 265 20,000  Level Winnipeg Center
Fri 10:20:40 PM 54.2500 -97.7000 360° North 230 265 20,000  Level Winnipeg Center
Fri 10:21:40 PM 54.3167 -97.7167 352° North 230 265 20,000  Level Winnipeg Center
Fri 10:22:40 PM 54.3833 -97.7167 360° North 230 265 20,000  Level Winnipeg Center
Fri 10:23:40 PM 54.4500 -97.7167 360° North 230 265 20,000  Level Winnipeg Center
Fri 10:24:40 PM 54.5167 -97.7333 352° North 230 265 20,000  Level Winnipeg Center
Fri 10:25:40 PM 54.5667 -97.7500 349° North 230 265 20,000 -50 Level Winnipeg Center
Fri 10:26:40 PM 54.6333 -97.7500 360° North 230 265 19,900 -600 Descending Winnipeg Center
Fri 10:27:40 PM 54.7000 -97.7500 360° North 250 288 18,800 -1,000 Descending Winnipeg Center
Fri 10:28:40 PM 54.7833 -97.7500 360° North 260 299 17,900 -900 Descending Winnipeg Center
Fri 10:29:40 PM 54.8500 -97.7500 360° North 270 311 17,000 -900 Descending Winnipeg Center
Fri 10:30:40 PM 54.9333 -97.7833 347° North 270 311 16,100 -1,050 Descending Winnipeg Center
Fri 10:31:40 PM 55.0000 -97.7833 360° North 270 311 14,900 -1,150 Descending Winnipeg Center
Fri 10:32:40 PM 55.0833 -97.7833 360° North 260 299 13,800 -1,150 Descending Winnipeg Center
Fri 10:33:40 PM 55.1500 -97.7833 360° North 260 299 12,600 -1,350 Descending Winnipeg Center
Fri 10:34:40 PM 55.2167 -97.7833 360° North 260 299 11,100 -1,450 Descending Winnipeg Center
Fri 10:35:40 PM 55.2833 -97.8167 344° North 250 288 9,700 -1,450 Descending Winnipeg Center
Fri 10:36:40 PM 55.3500 -97.8500 344° North 250 288 8,200 -1,450 Descending Winnipeg Center
Fri 10:37:40 PM 55.4167 -97.8500 360° North 240 276 6,800 -1,400 Descending Winnipeg Center
Fri 10:38:40 PM 55.4833 -97.8833 344° North 230 265 5,400 -1,200 Descending Winnipeg Center
Fri 10:39:40 PM 55.5500 -97.9167 344° North 230 265 4,400 -950 Descending Winnipeg Center
Fri 10:40:40 PM 55.6000 -97.9167 360° North 210 242 3,500 -750 Descending Winnipeg Center
Fri 10:41:40 PM 55.6500 -97.9333 349° North 200 230 2,900 -550 Descending Winnipeg Center
Fri 10:42:40 PM 55.7167 -97.9667 344° North 210 242 2,400 -500 Descending Winnipeg Center

Login

Don't have an account? Register now (free) for customized features, flight alerts, and more!